Time;durP1;ratioP1;P1;durP2;ratioP2;P2;SDS_P1;SDS_P2;PMS_P1;PMS_P2;Temp;Humidity;BMP_temperature;BMP_pressure;BME280_temperature;BME280_humidity;BME280_pressure;Samples;Min_cycle;Max_cycle;Signal;HPM_P1;HPM_P2
2023/04/04 00:00:19;;;;;;;8.70;3.28;;;1.10;99.90;;;-144.05;53.79;57025.13;5035435;28;20432;-78
2023/04/04 00:02:45;;;;;;;7.05;3.72;;;1.00;99.90;;;-144.05;53.76;57042.13;5035097;28;20037;-78
2023/04/04 00:05:11;;;;;;;6.53;3.20;;;1.00;99.90;;;-144.05;53.86;57046.38;5035336;28;20029;-78
2023/04/04 00:07:37;;;;;;;7.55;3.33;;;1.00;99.90;;;-144.05;54.21;57031.50;5030483;28;20219;-79
2023/04/04 00:10:03;;;;;;;7.88;3.90;;;0.90;99.90;;;-144.05;54.48;57050.63;5050229;28;20033;-80
2023/04/04 00:12:29;;;;;;;7.05;3.08;;;0.80;99.90;;;-144.05;54.25;57071.84;5042467;28;20052;-79
2023/04/04 00:14:55;;;;;;;6.15;3.35;;;0.90;99.90;;;-144.05;54.34;57020.88;5042017;28;20071;-80
2023/04/04 00:17:20;;;;;;;7.13;3.70;;;0.90;99.90;;;-144.05;54.15;57046.38;5039889;28;20122;-80
2023/04/04 00:19:46;;;;;;;6.80;3.35;;;0.90;99.90;;;-144.05;53.85;57086.72;5039000;28;20061;-79
2023/04/04 00:22:15;;;;;;;15.35;3.70;;;1.00;99.90;;;-144.05;53.64;57061.22;5038518;28;20503;-80
2023/04/04 00:24:41;;;;;;;10.02;3.70;;;1.00;99.90;;;-144.05;53.57;57056.97;5020960;28;20128;-80
2023/04/04 00:27:07;;;;;;;10.15;4.50;;;0.90;99.90;;;-144.05;53.68;57054.88;5038643;28;20061;-80
2023/04/04 00:29:36;;;;;;;11.00;4.13;;;0.90;99.90;;;-144.05;53.52;57018.75;5038492;28;20029;-79
2023/04/04 00:32:02;;;;;;;8.95;3.33;;;0.90;99.90;;;-144.05;53.96;57063.34;5038245;28;20117;-78
2023/04/04 00:34:28;;;;;;;6.45;3.17;;;0.90;99.90;;;-144.05;53.99;57056.97;5019005;28;20033;-77
2023/04/04 00:36:54;;;;;;;7.32;3.40;;;0.80;99.90;;;-144.05;54.27;57035.75;5037123;28;20037;-80
2023/04/04 00:39:20;;;;;;;6.32;3.50;;;0.80;99.90;;;-144.05;54.05;57014.50;5037355;28;20033;-79
2023/04/04 00:41:49;;;;;;;7.80;3.50;;;0.80;99.90;;;-144.05;54.12;57052.75;5019632;28;20029;-81
2023/04/04 00:44:15;;;;;;;7.90;3.60;;;0.80;99.90;;;-144.05;54.12;57027.25;5037159;28;20494;-79
2023/04/04 00:46:41;;;;;;;9.95;3.50;;;0.80;99.90;;;-144.05;54.08;57056.97;5018682;28;20055;-78
2023/04/04 00:49:06;;;;;;;7.80;3.50;;;0.80;99.90;;;-144.05;53.95;57056.97;5036862;28;20041;-78
2023/04/04 00:51:32;;;;;;;7.28;3.40;;;0.90;99.90;;;-144.05;53.60;57069.72;5036183;28;20090;-79
2023/04/04 00:53:59;;;;;;;7.43;3.22;;;0.90;99.90;;;-144.05;53.26;57065.47;5036831;28;20055;-78
2023/04/04 00:56:25;;;;;;;8.50;3.45;;;0.90;99.90;;;-144.05;53.28;57046.38;5036031;28;20032;-79
2023/04/04 00:58:51;;;;;;;8.77;3.28;;;1.00;99.90;;;-144.05;52.77;57063.34;5036306;28;20025;-78
2023/04/04 01:01:17;;;;;;;14.32;3.53;;;1.10;99.90;;;-144.05;53.04;57040.00;5035691;28;20080;-79
2023/04/04 01:03:44;;;;;;;14.18;3.85;;;1.10;99.90;;;-144.05;52.80;56995.38;5035684;28;20409;-80
2023/04/04 01:06:10;;;;;;;10.35;3.55;;;1.20;99.90;;;-144.05;52.82;57054.88;5035729;28;20421;-78
2023/04/04 01:08:39;;;;;;;6.95;3.70;;;1.20;99.90;;;-144.05;52.45;57059.09;5035227;28;20040;-78
2023/04/04 01:11:06;;;;;;;8.20;3.35;;;1.20;99.90;;;-144.05;52.56;57065.47;5035121;28;20029;-79
2023/04/04 01:13:32;;;;;;;6.07;3.00;;;1.20;99.90;;;-144.05;52.47;57044.25;5035240;28;20108;-80
2023/04/04 01:15:59;;;;;;;6.93;3.50;;;1.20;99.90;;;-144.05;52.60;57048.50;5035639;28;20033;-79
2023/04/04 01:18:27;;;;;;;7.70;3.35;;;1.10;99.90;;;-144.05;52.84;57065.47;5034663;28;20033;-80
2023/04/04 01:21:15;;;;;;;5.05;3.20;;;1.00;99.90;;;-144.05;52.85;57044.25;5016855;28;20091;-79
2023/04/04 01:24:02;;;;;;;9.65;3.42;;;1.00;99.90;;;-144.05;53.21;57050.63;5016339;28;20412;-79
2023/04/04 01:26:30;;;;;;;5.90;3.30;;;0.90;99.90;;;-144.05;53.94;57046.38;5016067;28;20029;-79
2023/04/04 01:28:58;;;;;;;8.38;3.53;;;0.70;99.90;;;-144.05;54.30;57042.13;5033911;28;20116;-78
2023/04/04 01:31:41;;;;;;;7.47;3.95;;;0.50;99.90;;;-144.05;55.14;57061.22;5033776;28;20442;-79
2023/04/04 01:35:06;;;;;;;8.88;3.45;;;0.10;99.90;;;-144.05;56.45;57048.50;5033821;28;20466;-80
2023/04/04 01:38:02;;;;;;;7.43;3.70;;;0.00;99.90;;;-144.05;57.32;57080.34;5033120;28;20508;-79
2023/04/04 01:40:36;;;;;;;7.23;3.57;;;-0.10;99.90;;;-144.05;57.32;57063.34;5033700;28;20533;-79
2023/04/04 01:43:02;;;;;;;7.28;3.88;;;-0.10;99.90;;;-144.05;56.99;57069.72;5015575;28;20272;-79
2023/04/04 01:45:29;;;;;;;10.32;4.60;;;-0.30;99.90;;;-144.05;57.76;57063.34;5015193;28;20064;-78
2023/04/04 01:47:58;;;;;;;8.25;3.97;;;-0.20;99.90;;;-144.05;57.87;57071.84;5033199;28;20037;-78
2023/04/04 01:50:25;;;;;;;9.25;4.30;;;-0.10;99.90;;;-144.05;57.70;57050.63;5015119;28;20041;-79
2023/04/04 01:52:51;;;;;;;10.63;4.07;;;0.00;99.90;;;-144.05;57.46;57046.38;5015125;28;20026;-78
2023/04/04 01:55:17;;;;;;;11.23;4.68;;;0.10;99.90;;;-144.05;57.12;57054.88;5033016;28;20043;-79
2023/04/04 01:57:42;;;;;;;12.05;4.18;;;0.20;99.90;;;-144.05;56.26;57050.63;5033069;28;20048;-78
2023/04/04 02:00:09;;;;;;;8.38;4.45;;;0.40;99.90;;;-144.05;55.72;57056.97;5045275;28;20029;-80
2023/04/04 02:02:36;;;;;;;10.13;4.57;;;0.50;99.90;;;-144.05;55.82;57042.13;5045620;28;20037;-81
2023/04/04 02:05:03;;;;;;;10.80;4.03;;;0.50;99.90;;;-144.05;55.23;57061.22;5037769;28;20123;-80
2023/04/04 02:07:28;;;;;;;7.05;3.72;;;0.50;99.90;;;-144.05;55.29;57003.88;5019717;28;20029;-81
2023/04/04 02:09:54;;;;;;;7.40;3.80;;;0.50;99.90;;;-144.05;55.46;57040.00;5037520;28;20034;-80
2023/04/04 02:12:21;;;;;;;9.98;4.15;;;0.50;99.90;;;-144.05;55.47;57040.00;5036253;28;20112;-80
2023/04/04 02:14:47;;;;;;;7.38;4.50;;;0.40;99.90;;;-144.05;55.80;57035.75;5035639;28;20117;-80
2023/04/04 02:17:12;;;;;;;9.70;4.15;;;0.10;99.90;;;-144.05;56.55;57042.13;5035815;28;20029;-81
2023/04/04 02:19:39;;;;;;;9.00;4.22;;;0.00;99.90;;;-144.05;57.31;57059.09;5017225;28;20501;-81
2023/04/04 02:22:05;;;;;;;12.82;5.53;;;-0.20;99.90;;;-144.05;57.80;57061.22;5035462;28;20021;-80
2023/04/04 02:24:31;;;;;;;8.38;4.95;;;-0.40;99.90;;;-144.05;58.73;57052.75;5035316;28;20550;-81
2023/04/04 02:26:57;;;;;;;13.45;4.95;;;-0.60;99.90;;;-144.05;58.80;57056.97;5042335;28;20053;-81
2023/04/04 02:29:22;;;;;;;7.22;3.35;;;-0.80;99.90;;;-144.05;59.42;57073.97;5036998;28;20037;-81
2023/04/04 02:31:48;;;;;;;5.45;3.25;;;-0.90;99.90;;;-144.05;59.96;57069.72;5026977;28;20034;-80
2023/04/04 02:34:14;;;;;;;13.23;4.68;;;-1.00;99.90;;;-144.05;60.21;57065.47;5046516;28;20021;-80
2023/04/04 02:36:40;;;;;;;8.68;3.28;;;-1.20;99.90;;;-144.05;60.60;57071.84;5046410;28;20057;-79
2023/04/04 02:39:06;;;;;;;6.20;3.28;;;-1.30;99.90;;;-144.05;61.30;57082.47;5040839;28;20034;-79
2023/04/04 02:41:32;;;;;;;7.10;3.60;;;-1.40;99.90;;;-144.05;61.97;57080.34;5035833;28;20579;-81
2023/04/04 02:43:58;;;;;;;8.30;3.70;;;-1.50;99.90;;;-144.05;62.42;57080.34;5035616;28;20029;-79
2023/04/04 02:46:24;;;;;;;5.85;3.50;;;-1.60;99.90;;;-144.05;62.81;57078.22;5035417;28;20504;-81
2023/04/04 02:48:50;;;;;;;11.30;3.63;;;-1.50;99.90;;;-144.05;62.49;57069.72;5017620;28;20037;-82
2023/04/04 02:51:17;;;;;;;10.15;3.75;;;-1.50;99.90;;;-144.05;63.26;57054.88;5035283;28;20038;-79
2023/04/04 02:53:43;;;;;;;10.10;4.57;;;-1.60;99.90;;;-144.05;64.31;57084.59;5018443;28;20033;-79
2023/04/04 02:56:08;;;;;;;6.68;3.50;;;-1.60;99.90;;;-144.05;63.64;57084.59;5035622;28;20045;-79
2023/04/04 02:58:34;;;;;;;6.78;3.58;;;-1.50;99.90;;;-144.05;64.02;57076.09;5035084;28;20033;-78
2023/04/04 03:01:00;;;;;;;9.75;4.38;;;-1.60;99.90;;;-144.05;64.11;57086.72;5035589;28;20556;-81
2023/04/04 03:03:26;;;;;;;10.43;4.95;;;-1.50;99.90;;;-144.05;64.16;57073.97;5035175;28;20037;-81
2023/04/04 03:05:52;;;;;;;8.98;4.07;;;-1.40;99.90;;;-144.05;64.23;57084.59;5035364;28;20477;-80
2023/04/04 03:08:18;;;;;;;6.13;3.60;;;-1.40;99.90;;;-144.05;63.97;57080.34;5035302;28;20511;-80
2023/04/04 03:10:46;;;;;;;10.02;3.33;;;-1.50;99.90;;;-144.05;64.26;57080.34;5016952;28;20084;-81
2023/04/04 03:13:12;;;;;;;7.22;3.75;;;-1.70;99.90;;;-144.05;64.46;57048.50;5034432;28;20034;-80
2023/04/04 03:15:39;;;;;;;6.20;3.85;;;-1.70;99.90;;;-144.05;64.87;57095.22;5034575;28;20539;-80
2023/04/04 03:18:05;;;;;;;9.00;3.55;;;-1.70;99.90;;;-144.05;64.90;57080.34;5034209;28;20029;-79
2023/04/04 03:20:32;;;;;;;5.88;3.20;;;-1.80;99.90;;;-144.05;65.31;57086.72;5033953;28;20037;-80
2023/04/04 03:22:57;;;;;;;10.20;4.07;;;-1.90;99.90;;;-144.05;65.23;57099.47;5034114;28;20194;-80
2023/04/04 03:25:24;;;;;;;11.48;4.15;;;-2.00;99.90;;;-144.05;66.15;57063.34;5033361;28;20095;-80
2023/04/04 03:27:50;;;;;;;6.90;4.43;;;-2.00;99.90;;;-144.05;65.73;57056.97;5033514;28;20037;-80
2023/04/04 03:30:16;;;;;;;9.73;3.67;;;-2.00;99.90;;;-144.05;65.92;57044.25;5015425;28;20068;-79
2023/04/04 03:32:42;;;;;;;10.38;3.75;;;-1.90;99.90;;;-144.05;66.56;57073.97;5015079;28;20065;-80
2023/04/04 03:35:08;;;;;;;5.60;3.65;;;-1.90;99.90;;;-144.05;66.65;57052.75;5033199;28;20021;-80
2023/04/04 03:37:34;;;;;;;7.25;4.13;;;-1.90;99.90;;;-144.05;66.79;57071.84;5015075;28;20032;-78
2023/04/04 03:40:00;;;;;;;9.15;3.88;;;-1.80;99.90;;;-144.05;66.66;57078.22;5032983;28;20030;-81
2023/04/04 03:42:26;;;;;;;6.07;3.75;;;-1.80;99.90;;;-144.05;67.05;57082.47;5032692;28;20041;-80
2023/04/04 03:44:52;;;;;;;8.32;3.85;;;-1.80;99.90;;;-144.05;66.83;57082.47;5015306;28;20127;-80
2023/04/04 03:47:19;;;;;;;7.55;3.80;;;-1.90;99.90;;;-144.05;66.86;57095.22;5032319;28;20112;-81
2023/04/04 03:49:45;;;;;;;11.10;4.20;;;-2.00;99.90;;;-144.05;67.30;57086.72;5032335;28;20037;-81
2023/04/04 03:52:11;;;;;;;8.18;4.40;;;-2.00;99.90;;;-144.05;67.36;57073.97;5032615;28;20029;-80
2023/04/04 03:54:38;;;;;;;9.77;4.13;;;-1.90;99.90;;;-144.05;67.48;57065.47;5033003;28;20033;-79
2023/04/04 03:57:04;;;;;;;9.20;5.20;;;-1.90;99.90;;;-144.05;67.63;57082.47;5032302;28;20031;-78
2023/04/04 03:59:30;;;;;;;12.77;4.57;;;-1.80;99.90;;;-144.05;67.44;57099.47;5015010;28;20503;-78
2023/04/04 04:01:56;;;;;;;9.25;4.78;;;-1.90;99.90;;;-144.05;67.57;57076.09;5032600;28;20033;-79
2023/04/04 04:04:22;;;;;;;8.43;4.88;;;-1.90;99.90;;;-144.05;67.64;57063.34;5014811;28;20033;-80
2023/04/04 04:06:48;;;;;;;10.50;3.70;;;-1.90;99.90;;;-144.05;67.55;57073.97;5032813;28;20116;-78
2023/04/04 04:09:14;;;;;;;8.65;4.43;;;-2.00;99.90;;;-144.05;67.96;57076.09;5032831;28;20559;-78
2023/04/04 04:11:40;;;;;;;10.70;5.13;;;-2.10;99.90;;;-144.05;68.35;57078.22;5036507;28;20088;-81
2023/04/04 04:14:06;;;;;;;12.43;5.10;;;-2.00;99.90;;;-144.05;68.46;57086.72;5036491;28;20056;-82
2023/04/04 04:16:32;;;;;;;9.63;4.88;;;-2.10;99.90;;;-144.05;69.10;57097.34;5036765;28;20041;-80
2023/04/04 04:18:58;;;;;;;11.23;5.28;;;-2.10;99.90;;;-144.05;68.89;57052.75;5037244;28;20129;-80
2023/04/04 04:21:25;;;;;;;7.95;4.60;;;-2.20;99.90;;;-144.05;69.28;57054.88;5018554;28;20095;-79
2023/04/04 04:23:51;;;;;;;9.38;4.95;;;-2.10;99.90;;;-144.05;69.48;57082.47;5037012;28;20037;-79
2023/04/04 04:26:16;;;;;;;9.65;4.50;;;-2.10;99.90;;;-144.05;69.49;57088.84;5047206;28;20226;-80
2023/04/04 04:28:42;;;;;;;8.88;4.28;;;-2.20;99.90;;;-144.05;69.66;57065.47;5032058;28;20037;-80
2023/04/04 04:31:09;;;;;;;7.20;3.78;;;-2.10;99.90;;;-144.05;69.69;57078.22;5040502;28;20041;-80
2023/04/04 04:33:35;;;;;;;7.82;4.18;;;-2.20;99.90;;;-144.05;69.95;57073.97;5022211;28;20095;-78
2023/04/04 04:36:04;;;;;;;9.32;3.72;;;-2.20;99.90;;;-144.05;69.92;57078.22;5043114;28;20049;-79
2023/04/04 04:38:31;;;;;;;8.45;5.70;;;-2.20;99.90;;;-144.05;70.66;57097.34;5040367;28;20064;-82
2023/04/04 04:40:56;;;;;;;9.93;4.45;;;-2.20;99.90;;;-144.05;70.49;57067.59;5040382;28;20064;-81
2023/04/04 04:43:23;;;;;;;7.47;4.22;;;-2.20;99.90;;;-144.05;71.17;57071.84;5039518;28;20029;-80
2023/04/04 04:45:50;;;;;;;9.07;4.30;;;-2.20;99.90;;;-144.05;70.87;57078.22;5021391;28;20128;-80
2023/04/04 04:48:16;;;;;;;11.70;4.90;;;-2.20;99.90;;;-144.05;71.10;57078.22;5038923;28;20029;-79
2023/04/04 04:50:47;;;;;;;8.10;4.22;;;-2.20;99.90;;;-144.05;70.96;57061.22;5038588;28;20029;-80
2023/04/04 04:53:13;;;;;;;8.13;4.18;;;-2.20;99.90;;;-144.05;70.85;57071.84;5038112;28;20056;-80
2023/04/04 04:55:41;;;;;;;7.18;4.35;;;-2.20;99.90;;;-144.05;70.65;57056.97;5020234;28;20033;-80
2023/04/04 04:58:09;;;;;;;8.02;4.63;;;-2.30;99.90;;;-144.05;70.86;57071.84;5040676;28;20061;-81
2023/04/04 05:00:36;;;;;;;10.68;5.32;;;-2.30;99.90;;;-144.05;70.77;57082.47;5040242;28;20039;-82
2023/04/04 05:03:06;;;;;;;6.85;4.05;;;-2.30;99.90;;;-144.05;70.62;57080.34;5021355;28;20511;-80
2023/04/04 05:05:36;;;;;;;9.95;4.20;;;-2.40;99.90;;;-144.05;70.82;57101.59;5038982;28;20037;-80
2023/04/04 05:08:04;;;;;;;11.52;5.00;;;-2.40;99.90;;;-144.05;70.86;57069.72;5038523;28;20025;-79
2023/04/04 05:10:30;;;;;;;11.60;4.55;;;-2.40;99.90;;;-144.05;70.68;57073.97;5019900;28;20383;-81
2023/04/04 05:12:57;;;;;;;6.53;4.05;;;-2.40;99.90;;;-144.05;70.82;57069.72;5037182;28;20079;-80
2023/04/04 05:15:28;;;;;;;10.25;4.78;;;-2.50;99.90;;;-144.05;70.95;57080.34;5036757;28;20033;-80
2023/04/04 05:17:54;;;;;;;7.70;4.68;;;-2.50;99.90;;;-144.05;71.03;57078.22;5019300;28;20091;-82
2023/04/04 05:20:20;;;;;;;13.68;5.03;;;-2.50;99.90;;;-144.05;71.17;57086.72;5018743;28;20413;-80
2023/04/04 05:22:46;;;;;;;9.45;4.68;;;-2.40;99.90;;;-144.05;70.99;57090.97;5017206;28;20036;-81
2023/04/04 05:25:12;;;;;;;13.57;5.25;;;-2.40;99.90;;;-144.05;71.06;57044.25;5018684;28;20089;-81
2023/04/04 05:27:39;;;;;;;8.18;4.80;;;-2.30;99.90;;;-144.05;71.36;57084.59;5035933;28;20477;-81
2023/04/04 05:30:07;;;;;;;13.68;5.45;;;-2.30;99.90;;;-144.05;70.96;57067.59;5036397;28;20029;-80
2023/04/04 05:32:33;;;;;;;11.88;5.22;;;-2.20;99.90;;;-144.05;70.90;57082.47;5036900;28;20017;-78
2023/04/04 05:34:59;;;;;;;8.35;5.10;;;-2.10;99.90;;;-144.05;70.61;57056.97;5037559;28;20056;-80
2023/04/04 05:37:26;;;;;;;14.10;5.03;;;-2.00;99.90;;;-144.05;70.13;57044.25;5037267;28;20026;-79
2023/04/04 05:39:52;;;;;;;10.40;4.97;;;-1.90;99.90;;;-144.05;69.82;57052.75;5019643;28;20029;-80
2023/04/04 05:42:18;;;;;;;9.95;5.10;;;-1.80;99.90;;;-144.05;69.90;57059.09;5037716;28;20021;-81
2023/04/04 05:44:44;;;;;;;10.60;4.97;;;-1.70;99.90;;;-144.05;69.55;57069.72;5019897;28;20089;-81
2023/04/04 05:47:10;;;;;;;10.45;4.93;;;-1.60;99.90;;;-144.05;69.43;57042.13;5037303;28;20070;-80
2023/04/04 05:49:35;;;;;;;7.57;4.50;;;-1.50;99.90;;;-144.05;69.06;57046.38;5037431;28;20033;-80
2023/04/04 05:52:01;;;;;;;11.32;4.82;;;-1.30;99.90;;;-144.05;68.86;57040.00;5019718;28;20037;-81
2023/04/04 05:54:27;;;;;;;11.00;5.18;;;-1.20;99.90;;;-144.05;68.92;57046.38;5019487;28;20032;-78
2023/04/04 05:56:53;;;;;;;9.40;5.57;;;-1.10;99.90;;;-144.05;68.47;57046.38;5019283;28;20076;-81
2023/04/04 05:59:19;;;;;;;9.80;5.50;;;-1.00;99.90;;;-144.05;68.28;57035.75;5037876;28;20039;-80
2023/04/04 06:01:45;;;;;;;15.27;6.05;;;-0.80;99.90;;;-144.05;67.84;57044.25;5037191;28;20029;-80
2023/04/04 06:04:11;;;;;;;11.10;5.13;;;-0.60;99.90;;;-144.05;67.36;57027.25;5036380;28;20370;-79
2023/04/04 06:06:37;;;;;;;13.13;5.13;;;-0.50;99.90;;;-144.05;67.07;57054.88;5035780;28;20025;-80
2023/04/04 06:09:02;;;;;;;14.00;4.57;;;-0.30;99.90;;;-144.05;66.59;57033.63;5035800;28;20030;-80
2023/04/04 06:11:28;;;;;;;14.27;5.15;;;-0.20;99.90;;;-144.05;66.43;57031.50;5036168;28;20045;-81
2023/04/04 06:13:54;;;;;;;9.48;4.45;;;-0.20;99.90;;;-144.05;66.47;57040.00;5036029;28;20029;-81
2023/04/04 06:16:21;;;;;;;13.50;5.38;;;-0.20;99.90;;;-144.05;67.08;57018.75;5018498;28;20033;-80
2023/04/04 06:18:47;;;;;;;10.32;5.35;;;0.10;99.90;;;-144.05;66.80;57016.63;5036303;28;20025;-80
2023/04/04 06:21:13;;;;;;;6.35;4.15;;;0.30;99.90;;;-144.05;66.15;57018.75;5015466;28;20033;-79
2023/04/04 06:23:39;;;;;;;8.10;3.88;;;0.40;99.90;;;-144.05;65.62;57006.00;5033311;28;20496;-81
2023/04/04 06:26:07;;;;;;;10.18;4.70;;;0.70;99.90;;;-144.05;64.55;57025.13;5015448;28;20075;-78
2023/04/04 06:28:33;;;;;;;7.50;3.90;;;0.80;99.90;;;-144.05;63.49;56995.38;5033536;28;20026;-78
2023/04/04 06:30:59;;;;;;;7.00;4.47;;;1.00;99.90;;;-144.05;62.81;57001.75;5034143;28;20048;-78
2023/04/04 06:33:25;;;;;;;9.57;4.70;;;0.90;99.90;;;-144.05;62.51;56993.25;5033956;28;20017;-79
2023/04/04 06:35:50;;;;;;;8.70;4.50;;;0.90;99.90;;;-144.05;62.20;57001.75;5034312;28;20052;-78
2023/04/04 06:38:16;;;;;;;8.27;4.55;;;0.80;99.90;;;-144.05;61.97;57016.63;5016496;28;20061;-78
2023/04/04 06:40:42;;;;;;;11.35;4.85;;;0.70;99.90;;;-144.05;61.48;57014.50;5033689;28;20382;-80
2023/04/04 06:43:09;;;;;;;7.72;4.45;;;0.60;99.90;;;-144.05;60.82;57029.38;5035546;28;20401;-79
2023/04/04 06:45:35;;;;;;;17.80;5.03;;;0.60;99.90;;;-144.05;60.65;57016.63;5020194;28;20568;-80
2023/04/04 06:48:02;;;;;;;13.38;4.97;;;0.60;99.90;;;-144.05;61.09;56995.38;5040659;28;20033;-82
2023/04/04 06:50:31;;;;;;;8.82;4.18;;;0.60;99.90;;;-144.05;60.92;57012.38;5037713;28;20038;-81
2023/04/04 06:52:59;;;;;;;7.68;4.47;;;0.50;99.90;;;-144.05;61.32;57003.88;5051950;28;20032;-80
2023/04/04 06:55:26;;;;;;;13.43;5.85;;;0.60;99.90;;;-144.05;62.23;56991.13;5045703;28;20449;-79
2023/04/04 06:57:53;;;;;;;19.30;7.53;;;1.10;99.90;;;-144.05;61.47;56997.50;5021144;28;20401;-80
2023/04/04 07:00:20;;;;;;;16.45;7.85;;;1.60;99.90;;;-144.05;59.99;56997.50;5038058;28;20029;-80
2023/04/04 07:02:46;;;;;;;13.93;7.57;;;2.20;99.90;;;-144.05;58.38;56989.00;5036634;28;20503;-80
2023/04/04 07:05:13;;;;;;;18.20;7.97;;;2.70;99.90;;;-144.05;56.45;56978.41;5018666;28;20032;-81
2023/04/04 07:07:39;;;;;;;20.25;7.60;;;3.10;99.90;;;-144.05;54.74;56984.78;5036496;28;20029;-82
2023/04/04 07:10:07;;;;;;;20.35;7.20;;;3.40;99.90;;;-144.05;52.80;56963.53;5018186;28;20108;-79
2023/04/04 07:12:33;;;;;;;15.52;6.40;;;3.60;99.90;;;-144.05;52.26;56978.41;5017580;28;20511;-82
2023/04/04 07:14:59;;;;;;;14.88;6.90;;;3.80;99.90;;;-144.05;51.64;57008.13;5018613;28;20033;-79
2023/04/04 07:17:24;;;;;;;12.73;6.20;;;4.00;99.90;;;-144.05;50.05;56946.53;5037113;28;20053;-81
2023/04/04 07:19:50;;;;;;;12.38;6.25;;;4.20;99.90;;;-144.05;49.90;56957.16;5037137;28;20101;-81
2023/04/04 07:22:16;;;;;;;13.60;5.78;;;4.60;99.90;;;-144.05;47.86;56967.78;5019439;28;20127;-81
2023/04/04 07:24:42;;;;;;;16.95;5.47;;;4.70;99.90;;;-144.05;48.34;56980.53;5020337;28;20037;-79
2023/04/04 07:27:08;;;;;;;13.13;5.25;;;5.10;99.90;;;-144.05;45.85;56957.16;5038751;28;20030;-79
2023/04/04 07:29:34;;;;;;;17.35;6.03;;;5.30;99.90;;;-144.05;43.65;56955.03;5020097;28;20030;-80
2023/04/04 07:31:59;;;;;;;9.80;4.82;;;5.50;99.90;;;-144.05;43.51;56963.53;5038278;28;20434;-79
2023/04/04 07:34:26;;;;;;;9.43;4.72;;;5.80;99.90;;;-144.05;42.59;56946.53;5038351;28;20036;-80
2023/04/04 07:36:52;;;;;;;9.40;4.18;;;6.00;99.90;;;-144.05;41.46;56959.28;5020694;28;20485;-78
2023/04/04 07:39:18;;;;;;;8.95;4.45;;;6.20;99.90;;;-144.05;41.00;56925.28;5019183;28;20039;-78
2023/04/04 07:41:44;;;;;;;10.30;4.18;;;6.60;99.90;;;-144.05;39.28;56942.28;5037229;28;20040;-79
2023/04/04 07:44:10;;;;;;;7.82;3.40;;;6.70;99.90;;;-144.05;38.04;56946.53;5037104;28;20064;-78
2023/04/04 07:46:37;;;;;;;10.95;3.63;;;6.70;99.90;;;-144.05;38.08;56925.28;5043197;28;20083;-79
2023/04/04 07:49:03;;;;;;;9.07;3.47;;;6.60;99.90;;;-144.05;36.95;56935.91;5048935;28;20120;-80
2023/04/04 07:51:29;;;;;;;6.97;3.88;;;6.40;99.90;;;-144.05;37.75;56931.66;5050090;28;20026;-78
2023/04/04 07:53:56;;;;;;;7.65;3.65;;;6.60;99.90;;;-144.05;37.29;56942.28;5049622;28;20563;-78
2023/04/04 07:56:22;;;;;;;8.48;4.35;;;6.80;99.90;;;-144.05;36.21;56927.41;5040123;28;20032;-78
2023/04/04 07:58:48;;;;;;;7.63;3.65;;;6.90;99.90;;;-144.05;36.46;56952.91;5040726;28;20449;-80
2023/04/04 08:01:14;;;;;;;7.50;3.85;;;6.80;99.90;;;-144.05;36.57;56942.28;5023566;28;20047;-79
2023/04/04 08:03:40;;;;;;;5.82;2.88;;;6.80;99.80;;;-144.05;37.84;56967.78;5040969;28;20044;-79
2023/04/04 08:06:06;;;;;;;8.45;3.35;;;6.40;99.90;;;-144.05;37.27;56957.16;5040285;28;20057;-78
2023/04/04 08:08:31;;;;;;;5.38;2.78;;;6.30;99.90;;;-144.05;36.85;56961.41;5021842;28;20045;-80
2023/04/04 08:10:57;;;;;;;6.30;3.40;;;6.40;99.90;;;-144.05;36.46;56948.66;5040014;28;20111;-78
2023/04/04 08:13:23;;;;;;;5.90;2.63;;;6.40;99.40;;;-144.05;36.55;56976.28;5039425;28;20017;-80
2023/04/04 08:15:49;;;;;;;7.40;2.22;;;6.50;99.00;;;-144.05;35.27;56957.16;5039843;28;20075;-78
2023/04/04 08:18:15;;;;;;;7.45;2.00;;;6.30;96.40;;;-144.05;35.09;56946.53;5040617;28;20105;-79
2023/04/04 08:20:41;;;;;;;4.50;2.50;;;6.30;95.90;;;-144.05;35.42;56950.78;5022364;28;20036;-80
2023/04/04 08:23:07;;;;;;;6.20;2.30;;;6.50;97.40;;;-144.05;35.38;56963.53;5040610;28;20030;-79
2023/04/04 08:25:33;;;;;;;5.95;1.90;;;6.40;96.00;;;-144.05;35.24;56982.66;5021694;28;20126;-79
2023/04/04 08:28:00;;;;;;;5.57;2.05;;;6.30;95.70;;;-144.05;35.02;56982.66;5039500;28;20059;-81
2023/04/04 08:30:26;;;;;;;5.68;2.00;;;6.40;94.80;;;-144.05;34.67;56967.78;5021965;28;20457;-80
2023/04/04 08:32:52;;;;;;;3.47;1.70;;;6.20;94.40;;;-144.05;34.27;56948.66;5040098;28;20025;-79
2023/04/04 08:35:17;;;;;;;7.68;1.88;;;6.00;93.50;;;-144.05;34.06;56957.16;5039395;28;20041;-80
2023/04/04 08:37:47;;;;;;;4.40;1.73;;;5.90;93.40;;;-144.05;34.77;56948.66;5039477;28;20026;-80
2023/04/04 08:40:15;;;;;;;4.82;1.83;;;6.10;93.50;;;-144.05;34.48;56965.66;5039777;28;20033;-80
2023/04/04 08:42:44;;;;;;;6.38;1.63;;;6.40;93.60;;;-144.05;33.68;56942.28;5021885;28;20440;-78
2023/04/04 08:45:15;;;;;;;4.25;1.85;;;6.80;91.60;;;-144.05;32.84;56942.28;5021027;28;20025;-79
2023/04/04 08:47:43;;;;;;;4.22;1.65;;;7.30;90.40;;;-144.05;32.22;56950.78;5040647;28;20025;-80
2023/04/04 08:50:09;;;;;;;3.78;1.33;;;7.50;89.20;;;-144.05;32.02;56940.16;5022711;28;20040;-78
2023/04/04 08:52:38;;;;;;;4.55;1.40;;;7.70;87.30;;;-144.05;32.49;56938.03;5042622;28;20025;-79
2023/04/04 08:55:05;;;;;;;2.88;1.58;;;7.70;88.40;;;-144.05;32.63;56942.28;5040395;28;20021;-78
2023/04/04 08:57:32;;;;;;;4.50;1.60;;;7.50;87.30;;;-144.05;33.11;56961.41;5020722;28;20030;-80
2023/04/04 08:59:59;;;;;;;3.85;2.08;;;7.30;87.50;;;-144.05;32.78;56967.78;5021824;28;20026;-81
2023/04/04 09:02:56;;;;;;;4.10;1.65;;;7.60;87.10;;;-144.05;32.22;56938.03;5039122;28;20076;-79
2023/04/04 09:05:24;;;;;;;4.78;1.75;;;8.10;85.70;;;-144.05;30.84;56931.66;5041080;28;20049;-78
2023/04/04 09:07:51;;;;;;;4.82;1.95;;;8.20;80.70;;;-144.05;31.25;56955.03;5040802;28;20025;-81
2023/04/04 09:10:16;;;;;;;3.47;1.80;;;8.40;80.40;;;-144.05;30.42;56910.44;5038007;28;20127;-79
2023/04/04 09:12:47;;;;;;;5.90;1.80;;;8.40;78.20;;;-144.05;30.33;56925.28;5037673;28;20488;-79
2023/04/04 09:15:14;;;;;;;5.85;1.73;;;8.70;79.80;;;-144.05;30.89;56931.66;5019445;28;20401;-78
2023/04/04 09:17:40;;;;;;;4.75;1.77;;;9.00;79.80;;;-144.05;30.59;56916.81;5048164;28;20077;-80
2023/04/04 09:20:42;;;;;;;7.38;1.67;;;9.10;77.20;;;-144.05;30.73;56957.16;5039942;28;20591;-80
2023/04/04 09:23:14;;;;;;;4.72;1.65;;;8.80;78.70;;;-144.05;30.72;56916.81;5019636;28;20386;-81
2023/04/04 09:25:53;;;;;;;5.22;1.98;;;9.10;76.90;;;-144.05;30.70;56938.03;5019737;28;20087;-81
2023/04/04 09:28:22;;;;;;;3.58;1.60;;;9.20;78.20;;;-144.05;30.60;56948.66;5037908;28;20030;-80
2023/04/04 09:30:50;;;;;;;2.95;1.42;;;9.40;76.30;;;-144.05;30.28;56925.28;5037572;28;20034;-80
2023/04/04 09:33:20;;;;;;;7.15;2.15;;;9.40;74.50;;;-144.05;31.69;56940.16;5020590;28;20024;-79
2023/04/04 09:36:19;;;;;;;4.55;1.80;;;9.10;77.60;;;-144.05;31.55;56906.19;5021604;28;20053;-81
2023/04/04 09:38:47;;;;;;;5.75;2.05;;;9.20;74.50;;;-144.05;31.60;56935.91;5021899;28;20141;-80
2023/04/04 09:41:15;;;;;;;5.18;1.50;;;9.10;76.60;;;-144.05;30.74;56965.66;5021504;28;20097;-81
2023/04/04 09:43:44;;;;;;;5.53;2.03;;;9.30;75.10;;;-144.05;30.85;56938.03;5020595;28;20080;-79
2023/04/04 09:46:10;;;;;;;11.13;2.40;;;9.20;74.00;;;-144.05;31.46;56918.94;5054941;22;20050;-84
2023/04/04 09:48:36;;;;;;;5.00;1.83;;;9.20;76.70;;;-144.05;31.83;56931.66;5019658;28;20064;-83
2023/04/04 09:51:11;;;;;;;3.58;1.48;;;9.30;77.00;;;-144.05;31.34;56933.78;5002099;28;20038;-83
2023/04/04 09:53:40;;;;;;;3.47;1.50;;;9.60;75.60;;;-144.05;31.29;56929.53;5019169;28;20052;-81
2023/04/04 09:56:07;;;;;;;4.78;1.70;;;9.60;75.90;;;-144.05;31.55;56938.03;5018533;28;20022;-82
2023/04/04 09:58:37;;;;;;;4.50;1.83;;;9.50;76.10;;;-144.05;31.01;56933.78;5002550;28;20034;-84
2023/04/04 10:01:11;;;;;;;3.45;1.60;;;9.70;75.10;;;-144.05;31.77;56935.91;5003365;28;20101;-83
2023/04/04 10:03:38;;;;;;;4.35;2.42;;;9.70;77.80;;;-144.05;30.72;56923.19;5007051;28;20036;-85
2023/04/04 10:06:09;;;;;;;4.28;1.45;;;9.80;73.50;;;-144.05;30.66;56933.78;5020886;28;20029;-83
2023/04/04 10:08:42;;;;;;;4.05;1.85;;;9.70;72.60;;;-144.05;30.94;56914.69;5001651;28;20058;-83